Terminal Aerodrome Forecast
Issued by NWS

Home | Current Version | Previous Version | Text Only | Print | Product List | Glossary On
Versions: 1 2 3 4 5 6 7 8 9 10 11 12 13 14 15 16 17 18 19 20 21 22 23 24 25 26 27 28 29
000
FTAK31 PAFA 252046 AAA
TAFAOM
TAF AMD
PAOM 252046Z 2521/2618 13019G25KT 6SM -SHRASN BR FEW010 OVC023
     FM260700 15021G28KT 4SM -SHSN BR OVC007=

USA.gov is the U.S. government's official web portal to all federal, state and local government web resources and services.